sensor_id;sensor_type;location;lat;lon;timestamp;pressure;altitude;pressure_sealevel;temperature;humidity
60258;BME280;46115;44.484;11.314;2023-05-22T00:03:35;100051.47;;;15.65;99.14
60258;BME280;46115;44.484;11.314;2023-05-22T00:07:38;100017.81;;;15.40;98.24
60258;BME280;46115;44.484;11.314;2023-05-22T00:11:42;100036.34;;;15.52;98.32
60258;BME280;46115;44.484;11.314;2023-05-22T00:15:45;100066.00;;;15.83;97.89
60258;BME280;46115;44.484;11.314;2023-05-22T00:19:48;100057.66;;;15.76;97.50
60258;BME280;46115;44.484;11.314;2023-05-22T00:23:51;100058.50;;;15.53;98.82
60258;BME280;46115;44.484;11.314;2023-05-22T00:27:53;100050.84;;;15.61;97.98
60258;BME280;46115;44.484;11.314;2023-05-22T00:31:57;100048.91;;;15.63;98.26
60258;BME280;46115;44.484;11.314;2023-05-22T00:36:00;100031.38;;;15.48;98.83
60258;BME280;46115;44.484;11.314;2023-05-22T00:40:03;100040.47;;;15.45;99.31
60258;BME280;46115;44.484;11.314;2023-05-22T00:44:05;100043.00;;;15.47;98.89
60258;BME280;46115;44.484;11.314;2023-05-22T00:48:09;100035.06;;;15.58;97.90
60258;BME280;46115;44.484;11.314;2023-05-22T00:52:13;100037.78;;;15.69;97.27
60258;BME280;46115;44.484;11.314;2023-05-22T00:56:17;100038.28;;;15.85;95.97
60258;BME280;46115;44.484;11.314;2023-05-22T01:00:20;100034.16;;;15.81;95.90
60258;BME280;46115;44.484;11.314;2023-05-22T01:04:24;100034.41;;;15.89;96.32
60258;BME280;46115;44.484;11.314;2023-05-22T01:08:26;100036.81;;;15.81;97.26
60258;BME280;46115;44.484;11.314;2023-05-22T01:12:33;100033.19;;;15.94;96.74
60258;BME280;46115;44.484;11.314;2023-05-22T01:16:44;100034.88;;;15.95;97.28
60258;BME280;46115;44.484;11.314;2023-05-22T01:20:57;100031.50;;;15.93;97.34
60258;BME280;46115;44.484;11.314;2023-05-22T01:25:18;100037.22;;;15.99;97.36
60258;BME280;46115;44.484;11.314;2023-05-22T01:29:42;100034.06;;;16.16;96.01
60258;BME280;46115;44.484;11.314;2023-05-22T01:33:52;100034.78;;;16.07;96.57
60258;BME280;46115;44.484;11.314;2023-05-22T01:37:56;100042.44;;;16.12;97.12
60258;BME280;46115;44.484;11.314;2023-05-22T01:41:58;100019.00;;;15.82;98.31
60258;BME280;46115;44.484;11.314;2023-05-22T01:46:02;100029.28;;;15.64;100.00
60258;BME280;46115;44.484;11.314;2023-05-22T01:50:08;100050.16;;;15.93;97.90
60258;BME280;46115;44.484;11.314;2023-05-22T01:54:15;100053.41;;;15.74;99.46
60258;BME280;46115;44.484;11.314;2023-05-22T01:58:28;100046.44;;;15.60;100.00
60258;BME280;46115;44.484;11.314;2023-05-22T02:02:34;100012.47;;;15.75;98.89
60258;BME280;46115;44.484;11.314;2023-05-22T02:06:39;100047.88;;;15.99;98.20
60258;BME280;46115;44.484;11.314;2023-05-22T02:10:43;100047.00;;;15.87;98.74
60258;BME280;46115;44.484;11.314;2023-05-22T02:14:47;100045.47;;;15.96;99.50
60258;BME280;46115;44.484;11.314;2023-05-22T02:18:50;100045.19;;;15.88;99.31
60258;BME280;46115;44.484;11.314;2023-05-22T02:22:56;100050.44;;;16.01;98.24
60258;BME280;46115;44.484;11.314;2023-05-22T02:26:58;100038.91;;;16.00;98.67
60258;BME280;46115;44.484;11.314;2023-05-22T02:31:01;100044.84;;;16.04;99.44
60258;BME280;46115;44.484;11.314;2023-05-22T02:35:04;100037.94;;;16.23;99.02
60258;BME280;46115;44.484;11.314;2023-05-22T02:39:08;100025.19;;;16.27;98.28
60258;BME280;46115;44.484;11.314;2023-05-22T02:43:11;100040.25;;;16.39;98.89
60258;BME280;46115;44.484;11.314;2023-05-22T02:47:13;100035.03;;;16.49;98.53
60258;BME280;46115;44.484;11.314;2023-05-22T02:51:15;100036.50;;;16.19;99.91
60258;BME280;46115;44.484;11.314;2023-05-22T02:55:19;100038.66;;;16.26;99.66
60258;BME280;46115;44.484;11.314;2023-05-22T02:59:22;100024.56;;;15.68;100.00
60258;BME280;46115;44.484;11.314;2023-05-22T03:03:25;100036.63;;;16.40;100.00
60258;BME280;46115;44.484;11.314;2023-05-22T03:07:29;100036.13;;;16.13;100.00
60258;BME280;46115;44.484;11.314;2023-05-22T03:11:33;100048.03;;;16.31;99.10
60258;BME280;46115;44.484;11.314;2023-05-22T03:15:36;100042.19;;;16.15;100.00
60258;BME280;46115;44.484;11.314;2023-05-22T03:19:45;100043.16;;;16.36;99.64
60258;BME280;46115;44.484;11.314;2023-05-22T03:23:48;100049.09;;;16.51;99.40
60258;BME280;46115;44.484;11.314;2023-05-22T03:27:52;100040.25;;;16.17;100.00
60258;BME280;46115;44.484;11.314;2023-05-22T03:31:55;100052.25;;;16.11;99.07
60258;BME280;46115;44.484;11.314;2023-05-22T03:35:59;100043.53;;;15.98;98.93
60258;BME280;46115;44.484;11.314;2023-05-22T03:40:04;100040.31;;;15.36;100.00
60258;BME280;46115;44.484;11.314;2023-05-22T03:44:08;100054.38;;;15.84;100.00
60258;BME280;46115;44.484;11.314;2023-05-22T03:48:10;100048.31;;;15.71;100.00
60258;BME280;46115;44.484;11.314;2023-05-22T03:52:13;100045.53;;;15.72;100.00
60258;BME280;46115;44.484;11.314;2023-05-22T03:56:15;100054.81;;;15.32;100.00
60258;BME280;46115;44.484;11.314;2023-05-22T04:00:19;100052.94;;;15.80;99.09
60258;BME280;46115;44.484;11.314;2023-05-22T04:04:22;100048.78;;;15.29;100.00
60258;BME280;46115;44.484;11.314;2023-05-22T04:08:26;100055.25;;;15.25;100.00
60258;BME280;46115;44.484;11.314;2023-05-22T04:12:29;100051.94;;;15.70;100.00
60258;BME280;46115;44.484;11.314;2023-05-22T04:16:33;100057.38;;;15.33;100.00
60258;BME280;46115;44.484;11.314;2023-05-22T04:20:35;100070.53;;;16.27;95.73
60258;BME280;46115;44.484;11.314;2023-05-22T04:24:38;100070.88;;;15.89;100.00
60258;BME280;46115;44.484;11.314;2023-05-22T04:28:40;100074.91;;;16.06;100.00
60258;BME280;46115;44.484;11.314;2023-05-22T04:32:48;100077.59;;;16.39;99.02
60258;BME280;46115;44.484;11.314;2023-05-22T04:36:50;100079.28;;;16.29;99.53
60258;BME280;46115;44.484;11.314;2023-05-22T04:40:53;100072.00;;;16.20;99.82
60258;BME280;46115;44.484;11.314;2023-05-22T04:44:56;100079.63;;;16.58;98.36
60258;BME280;46115;44.484;11.314;2023-05-22T04:49:00;100085.94;;;17.02;96.76
60258;BME280;46115;44.484;11.314;2023-05-22T04:53:03;100088.50;;;17.35;93.67
60258;BME280;46115;44.484;11.314;2023-05-22T04:57:06;100081.91;;;17.60;93.09
60258;BME280;46115;44.484;11.314;2023-05-22T05:01:09;100098.06;;;18.12;88.76
60258;BME280;46115;44.484;11.314;2023-05-22T05:05:13;100097.28;;;18.21;88.76
60258;BME280;46115;44.484;11.314;2023-05-22T05:09:15;100095.63;;;18.60;87.35
60258;BME280;46115;44.484;11.314;2023-05-22T05:13:18;100106.47;;;18.58;87.11
60258;BME280;46115;44.484;11.314;2023-05-22T05:17:22;100109.84;;;18.91;85.49
60258;BME280;46115;44.484;11.314;2023-05-22T05:21:26;100111.25;;;18.95;84.62
60258;BME280;46115;44.484;11.314;2023-05-22T05:25:29;100112.19;;;19.44;83.34
60258;BME280;46115;44.484;11.314;2023-05-22T05:29:32;100112.59;;;19.39;83.15
60258;BME280;46115;44.484;11.314;2023-05-22T05:33:39;100100.31;;;19.17;81.90
60258;BME280;46115;44.484;11.314;2023-05-22T05:37:56;100103.97;;;19.26;81.52
60258;BME280;46115;44.484;11.314;2023-05-22T05:41:59;100099.72;;;20.10;79.68
60258;BME280;46115;44.484;11.314;2023-05-22T05:46:02;100107.75;;;20.20;79.01
60258;BME280;46115;44.484;11.314;2023-05-22T05:50:05;100099.59;;;20.02;78.92
60258;BME280;46115;44.484;11.314;2023-05-22T05:54:11;100099.31;;;20.05;77.60
60258;BME280;46115;44.484;11.314;2023-05-22T05:58:14;100109.69;;;20.47;76.15
60258;BME280;46115;44.484;11.314;2023-05-22T06:02:30;100109.81;;;20.45;76.69
60258;BME280;46115;44.484;11.314;2023-05-22T06:06:35;100106.84;;;20.85;76.12
60258;BME280;46115;44.484;11.314;2023-05-22T06:11:01;100123.94;;;20.84;75.59
60258;BME280;46115;44.484;11.314;2023-05-22T06:15:11;100128.81;;;21.44;74.55
60258;BME280;46115;44.484;11.314;2023-05-22T06:19:13;100134.22;;;21.62;73.41
60258;BME280;46115;44.484;11.314;2023-05-22T06:23:16;100133.81;;;21.74;71.98
60258;BME280;46115;44.484;11.314;2023-05-22T06:27:22;100141.81;;;21.31;73.44
60258;BME280;46115;44.484;11.314;2023-05-22T06:31:28;100145.94;;;21.96;71.48
60258;BME280;46115;44.484;11.314;2023-05-22T06:35:33;100141.50;;;22.05;71.68
60258;BME280;46115;44.484;11.314;2023-05-22T06:39:36;100137.19;;;22.12;70.64
60258;BME280;46115;44.484;11.314;2023-05-22T06:43:49;100135.16;;;22.14;71.45
60258;BME280;46115;44.484;11.314;2023-05-22T06:47:58;100139.72;;;22.14;70.74
60258;BME280;46115;44.484;11.314;2023-05-22T06:52:01;100137.53;;;22.69;68.01
60258;BME280;46115;44.484;11.314;2023-05-22T06:56:04;100135.88;;;23.10;67.62
60258;BME280;46115;44.484;11.314;2023-05-22T07:00:29;100139.00;;;23.40;65.27
60258;BME280;46115;44.484;11.314;2023-05-22T07:04:50;100134.56;;;23.22;66.18
60258;BME280;46115;44.484;11.314;2023-05-22T07:08:58;100143.53;;;23.31;66.41
60258;BME280;46115;44.484;11.314;2023-05-22T07:13:01;100158.31;;;24.10;63.72
60258;BME280;46115;44.484;11.314;2023-05-22T07:17:07;100152.09;;;24.34;62.27
60258;BME280;46115;44.484;11.314;2023-05-22T07:21:15;100161.25;;;24.80;60.70
60258;BME280;46115;44.484;11.314;2023-05-22T07:25:18;100156.31;;;25.00;59.73
60258;BME280;46115;44.484;11.314;2023-05-22T07:29:21;100168.19;;;25.22;60.15
60258;BME280;46115;44.484;11.314;2023-05-22T07:33:27;100171.03;;;25.67;59.24
60258;BME280;46115;44.484;11.314;2023-05-22T07:37:31;100165.59;;;25.67;59.22
60258;BME280;46115;44.484;11.314;2023-05-22T07:41:33;100167.75;;;25.95;57.16
60258;BME280;46115;44.484;11.314;2023-05-22T07:45:37;100163.72;;;26.28;56.69
60258;BME280;46115;44.484;11.314;2023-05-22T07:49:44;100162.16;;;25.42;56.73
60258;BME280;46115;44.484;11.314;2023-05-22T07:53:47;100158.31;;;26.28;56.25
60258;BME280;46115;44.484;11.314;2023-05-22T07:57:51;100152.47;;;26.02;55.08
60258;BME280;46115;44.484;11.314;2023-05-22T08:02:02;100161.75;;;26.60;55.55
60258;BME280;46115;44.484;11.314;2023-05-22T08:06:06;100164.66;;;26.73;54.48
60258;BME280;46115;44.484;11.314;2023-05-22T08:10:13;100146.31;;;27.41;52.55
60258;BME280;46115;44.484;11.314;2023-05-22T08:14:16;100142.38;;;26.63;53.81
60258;BME280;46115;44.484;11.314;2023-05-22T08:18:18;100147.19;;;26.76;54.31
60258;BME280;46115;44.484;11.314;2023-05-22T08:22:24;100151.94;;;27.75;53.08
60258;BME280;46115;44.484;11.314;2023-05-22T08:26:26;100155.44;;;27.69;52.27
60258;BME280;46115;44.484;11.314;2023-05-22T08:30:29;100141.25;;;28.16;50.46
60258;BME280;46115;44.484;11.314;2023-05-22T08:34:31;100151.03;;;28.95;49.46
60258;BME280;46115;44.484;11.314;2023-05-22T08:38:35;100143.91;;;28.94;48.57
60258;BME280;46115;44.484;11.314;2023-05-22T08:42:38;100143.59;;;29.16;46.99
60258;BME280;46115;44.484;11.314;2023-05-22T08:46:41;100135.94;;;28.92;47.71
60258;BME280;46115;44.484;11.314;2023-05-22T08:50:46;100113.91;;;28.80;46.91
60258;BME280;46115;44.484;11.314;2023-05-22T08:54:53;100134.66;;;28.88;47.74
60258;BME280;46115;44.484;11.314;2023-05-22T08:58:56;100139.03;;;29.37;47.26
60258;BME280;46115;44.484;11.314;2023-05-22T09:02:59;100147.47;;;28.66;47.60
60258;BME280;46115;44.484;11.314;2023-05-22T09:07:02;100136.06;;;27.36;50.36
60258;BME280;46115;44.484;11.314;2023-05-22T09:11:07;100134.75;;;28.39;48.82
60258;BME280;46115;44.484;11.314;2023-05-22T09:15:11;100128.88;;;27.86;49.09
60258;BME280;46115;44.484;11.314;2023-05-22T09:19:16;100133.22;;;28.30;49.78
60258;BME280;46115;44.484;11.314;2023-05-22T09:23:19;100139.31;;;28.66;48.02
60258;BME280;46115;44.484;11.314;2023-05-22T09:27:23;100125.56;;;27.69;49.32
60258;BME280;46115;44.484;11.314;2023-05-22T09:31:27;100130.56;;;28.36;49.25
60258;BME280;46115;44.484;11.314;2023-05-22T09:35:31;100129.56;;;27.73;49.65
60258;BME280;46115;44.484;11.314;2023-05-22T09:39:41;100132.94;;;27.96;50.74
60258;BME280;46115;44.484;11.314;2023-05-22T09:43:49;100129.03;;;27.42;51.24
60258;BME280;46115;44.484;11.314;2023-05-22T09:47:52;100130.16;;;27.69;50.68
60258;BME280;46115;44.484;11.314;2023-05-22T09:51:55;100134.59;;;28.19;48.18
60258;BME280;46115;44.484;11.314;2023-05-22T09:55:59;100125.28;;;26.62;49.95
60258;BME280;46115;44.484;11.314;2023-05-22T10:00:06;100088.19;;;26.78;50.90
60258;BME280;46115;44.484;11.314;2023-05-22T10:04:17;100113.50;;;26.70;51.46
60258;BME280;46115;44.484;11.314;2023-05-22T10:08:20;100111.88;;;27.20;51.77
60258;BME280;46115;44.484;11.314;2023-05-22T10:12:25;100107.13;;;26.92;51.17
60258;BME280;46115;44.484;11.314;2023-05-22T10:16:32;100096.69;;;26.60;53.37
60258;BME280;46115;44.484;11.314;2023-05-22T10:20:38;100096.22;;;26.41;53.31
60258;BME280;46115;44.484;11.314;2023-05-22T10:24:41;100104.16;;;26.87;52.89
60258;BME280;46115;44.484;11.314;2023-05-22T10:28:46;100098.72;;;27.02;51.35
60258;BME280;46115;44.484;11.314;2023-05-22T10:32:56;100098.53;;;27.03;52.47
60258;BME280;46115;44.484;11.314;2023-05-22T10:37:09;100099.88;;;26.78;53.31
60258;BME280;46115;44.484;11.314;2023-05-22T10:41:15;100098.91;;;26.71;53.19
60258;BME280;46115;44.484;11.314;2023-05-22T10:45:18;100096.50;;;26.76;52.89
60258;BME280;46115;44.484;11.314;2023-05-22T10:49:23;100086.97;;;26.80;52.67
60258;BME280;46115;44.484;11.314;2023-05-22T10:53:26;100094.63;;;26.62;50.49
60258;BME280;46115;44.484;11.314;2023-05-22T10:57:31;100086.91;;;26.95;51.44
60258;BME280;46115;44.484;11.314;2023-05-22T11:01:35;100089.38;;;26.60;52.79
60258;BME280;46115;44.484;11.314;2023-05-22T11:05:52;100079.84;;;26.79;52.66
60258;BME280;46115;44.484;11.314;2023-05-22T11:09:59;100091.91;;;26.77;52.50
60258;BME280;46115;44.484;11.314;2023-05-22T11:14:01;100077.63;;;26.01;48.97
60258;BME280;46115;44.484;11.314;2023-05-22T11:18:04;100062.16;;;26.24;50.25
60258;BME280;46115;44.484;11.314;2023-05-22T11:22:08;100068.25;;;26.11;53.16
60258;BME280;46115;44.484;11.314;2023-05-22T11:26:18;100065.22;;;25.92;54.32
60258;BME280;46115;44.484;11.314;2023-05-22T11:30:24;100056.22;;;25.54;55.14
60258;BME280;46115;44.484;11.314;2023-05-22T11:34:27;100050.25;;;25.81;53.85
60258;BME280;46115;44.484;11.314;2023-05-22T11:38:31;100048.19;;;25.68;49.76
60258;BME280;46115;44.484;11.314;2023-05-22T11:42:34;100030.06;;;25.69;51.53
60258;BME280;46115;44.484;11.314;2023-05-22T11:46:37;100043.25;;;25.87;53.78
60258;BME280;46115;44.484;11.314;2023-05-22T11:50:42;100039.59;;;25.57;52.96
60258;BME280;46115;44.484;11.314;2023-05-22T11:54:46;100036.34;;;25.84;50.06
60258;BME280;46115;44.484;11.314;2023-05-22T11:58:49;100032.22;;;25.73;50.80
60258;BME280;46115;44.484;11.314;2023-05-22T12:02:51;100041.06;;;25.44;48.60
60258;BME280;46115;44.484;11.314;2023-05-22T12:06:54;100035.09;;;25.26;50.82
60258;BME280;46115;44.484;11.314;2023-05-22T12:10:58;100036.69;;;25.43;51.28
60258;BME280;46115;44.484;11.314;2023-05-22T12:15:04;100035.13;;;25.49;51.57
60258;BME280;46115;44.484;11.314;2023-05-22T12:19:07;100025.97;;;25.27;50.44
60258;BME280;46115;44.484;11.314;2023-05-22T12:23:10;100008.72;;;25.28;52.59
60258;BME280;46115;44.484;11.314;2023-05-22T12:27:14;100016.19;;;25.03;51.06
60258;BME280;46115;44.484;11.314;2023-05-22T12:31:20;100017.09;;;25.41;51.72
60258;BME280;46115;44.484;11.314;2023-05-22T12:35:23;100018.84;;;25.34;49.99
60258;BME280;46115;44.484;11.314;2023-05-22T12:39:27;100018.88;;;25.49;50.32
60258;BME280;46115;44.484;11.314;2023-05-22T12:43:31;100011.41;;;25.51;52.99
60258;BME280;46115;44.484;11.314;2023-05-22T12:47:33;100016.44;;;25.39;51.37
60258;BME280;46115;44.484;11.314;2023-05-22T12:51:36;100015.63;;;25.76;50.95
60258;BME280;46115;44.484;11.314;2023-05-22T12:55:38;100014.69;;;25.84;51.83
60258;BME280;46115;44.484;11.314;2023-05-22T12:59:42;100009.75;;;25.88;50.00
60258;BME280;46115;44.484;11.314;2023-05-22T13:03:45;99978.56;;;25.54;48.65
60258;BME280;46115;44.484;11.314;2023-05-22T13:07:47;99999.38;;;25.76;51.01
60258;BME280;46115;44.484;11.314;2023-05-22T13:11:50;100009.19;;;25.92;50.79
60258;BME280;46115;44.484;11.314;2023-05-22T13:15:54;99989.38;;;25.39;51.17
60258;BME280;46115;44.484;11.314;2023-05-22T13:19:57;99982.47;;;25.52;51.24
60258;BME280;46115;44.484;11.314;2023-05-22T13:23:59;99989.66;;;25.67;51.87
60258;BME280;46115;44.484;11.314;2023-05-22T13:28:02;99984.63;;;25.79;51.08
60258;BME280;46115;44.484;11.314;2023-05-22T13:32:06;99982.38;;;25.83;50.90
60258;BME280;46115;44.484;11.314;2023-05-22T13:36:08;99976.81;;;25.61;50.63
60258;BME280;46115;44.484;11.314;2023-05-22T13:40:11;99970.53;;;25.69;52.06
60258;BME280;46115;44.484;11.314;2023-05-22T13:44:14;99971.09;;;25.56;52.65
60258;BME280;46115;44.484;11.314;2023-05-22T13:48:18;99962.88;;;25.72;52.54
60258;BME280;46115;44.484;11.314;2023-05-22T13:52:21;99966.16;;;25.60;51.09
60258;BME280;46115;44.484;11.314;2023-05-22T13:56:23;99943.19;;;25.41;50.62
60258;BME280;46115;44.484;11.314;2023-05-22T14:00:26;99952.63;;;25.60;51.27
60258;BME280;46115;44.484;11.314;2023-05-22T14:04:30;99950.75;;;25.68;49.50
60258;BME280;46115;44.484;11.314;2023-05-22T14:08:32;99953.28;;;25.47;49.53
60258;BME280;46115;44.484;11.314;2023-05-22T14:12:34;99942.19;;;25.19;49.08
60258;BME280;46115;44.484;11.314;2023-05-22T14:16:37;99930.03;;;25.53;48.54
60258;BME280;46115;44.484;11.314;2023-05-22T14:20:41;99940.22;;;25.50;49.27
60258;BME280;46115;44.484;11.314;2023-05-22T14:24:43;99934.66;;;25.67;50.92
60258;BME280;46115;44.484;11.314;2023-05-22T14:28:46;99933.94;;;25.73;49.64
60258;BME280;46115;44.484;11.314;2023-05-22T14:32:48;99930.88;;;25.53;49.59
60258;BME280;46115;44.484;11.314;2023-05-22T14:36:52;99919.78;;;25.48;50.33
60258;BME280;46115;44.484;11.314;2023-05-22T14:40:56;99924.44;;;25.39;49.97
60258;BME280;46115;44.484;11.314;2023-05-22T14:44:59;99916.75;;;25.28;47.48
60258;BME280;46115;44.484;11.314;2023-05-22T14:49:01;99908.84;;;25.41;47.99
60258;BME280;46115;44.484;11.314;2023-05-22T14:53:05;99910.94;;;25.16;49.67
60258;BME280;46115;44.484;11.314;2023-05-22T14:57:08;99904.00;;;25.52;49.31
60258;BME280;46115;44.484;11.314;2023-05-22T15:01:10;99897.22;;;25.18;49.32
60258;BME280;46115;44.484;11.314;2023-05-22T15:05:13;99891.50;;;25.36;48.77
60258;BME280;46115;44.484;11.314;2023-05-22T15:09:17;99898.69;;;25.43;48.62
60258;BME280;46115;44.484;11.314;2023-05-22T15:13:19;99890.31;;;25.01;49.15
60258;BME280;46115;44.484;11.314;2023-05-22T15:17:22;99885.38;;;25.04;49.30
60258;BME280;46115;44.484;11.314;2023-05-22T15:21:24;99891.28;;;25.23;49.73
60258;BME280;46115;44.484;11.314;2023-05-22T15:25:28;99888.38;;;25.24;47.70
60258;BME280;46115;44.484;11.314;2023-05-22T15:29:31;99880.25;;;25.09;49.00
60258;BME280;46115;44.484;11.314;2023-05-22T15:33:34;99885.53;;;25.40;47.58
60258;BME280;46115;44.484;11.314;2023-05-22T15:37:36;99892.88;;;25.32;47.96
60258;BME280;46115;44.484;11.314;2023-05-22T15:41:40;99858.53;;;25.32;48.11
60258;BME280;46115;44.484;11.314;2023-05-22T15:45:45;99896.31;;;25.26;48.55
60258;BME280;46115;44.484;11.314;2023-05-22T15:49:48;99888.28;;;25.32;49.77
60258;BME280;46115;44.484;11.314;2023-05-22T15:53:51;99891.69;;;25.34;50.20
60258;BME280;46115;44.484;11.314;2023-05-22T15:57:56;99892.22;;;25.30;50.57
60258;BME280;46115;44.484;11.314;2023-05-22T16:01:59;99871.03;;;25.18;50.02
60258;BME280;46115;44.484;11.314;2023-05-22T16:06:01;99884.75;;;25.32;50.52
60258;BME280;46115;44.484;11.314;2023-05-22T16:10:05;99888.91;;;25.05;51.98
60258;BME280;46115;44.484;11.314;2023-05-22T16:14:08;99885.19;;;24.98;52.03
60258;BME280;46115;44.484;11.314;2023-05-22T16:18:11;99883.69;;;25.03;49.78
60258;BME280;46115;44.484;11.314;2023-05-22T16:22:13;99887.78;;;24.91;49.18
60258;BME280;46115;44.484;11.314;2023-05-22T16:26:16;99883.25;;;25.14;49.75
60258;BME280;46115;44.484;11.314;2023-05-22T16:30:20;99884.53;;;25.04;49.86
60258;BME280;46115;44.484;11.314;2023-05-22T16:34:22;99886.03;;;25.06;49.30
60258;BME280;46115;44.484;11.314;2023-05-22T16:38:25;99881.63;;;24.82;49.01
60258;BME280;46115;44.484;11.314;2023-05-22T16:42:27;99886.31;;;25.11;49.69
60258;BME280;46115;44.484;11.314;2023-05-22T16:46:31;99885.47;;;24.88;50.94
60258;BME280;46115;44.484;11.314;2023-05-22T16:50:33;99898.34;;;25.24;49.38
60258;BME280;46115;44.484;11.314;2023-05-22T16:54:36;99894.31;;;25.05;47.86
60258;BME280;46115;44.484;11.314;2023-05-22T16:58:38;99902.47;;;25.19;49.79
60258;BME280;46115;44.484;11.314;2023-05-22T17:02:42;99899.84;;;25.11;49.49
60258;BME280;46115;44.484;11.314;2023-05-22T17:06:44;99911.38;;;25.05;50.97
60258;BME280;46115;44.484;11.314;2023-05-22T17:10:47;99909.72;;;24.96;51.72
60258;BME280;46115;44.484;11.314;2023-05-22T17:14:49;99914.63;;;25.01;51.34
60258;BME280;46115;44.484;11.314;2023-05-22T17:18:53;99914.91;;;24.83;51.61
60258;BME280;46115;44.484;11.314;2023-05-22T17:22:55;99919.69;;;25.04;50.28
60258;BME280;46115;44.484;11.314;2023-05-22T17:26:58;99922.56;;;24.94;51.69
60258;BME280;46115;44.484;11.314;2023-05-22T17:31:00;99925.53;;;24.84;51.92
60258;BME280;46115;44.484;11.314;2023-05-22T17:35:05;99927.28;;;24.77;52.48
60258;BME280;46115;44.484;11.314;2023-05-22T17:39:07;99923.97;;;24.67;53.02
60258;BME280;46115;44.484;11.314;2023-05-22T17:43:10;99922.31;;;24.58;53.53
60258;BME280;46115;44.484;11.314;2023-05-22T17:47:12;99929.28;;;24.52;54.52
60258;BME280;46115;44.484;11.314;2023-05-22T17:51:16;99928.00;;;24.40;54.10
60258;BME280;46115;44.484;11.314;2023-05-22T17:55:18;99942.22;;;24.34;54.55
60258;BME280;46115;44.484;11.314;2023-05-22T17:59:21;99936.66;;;24.27;54.70
60258;BME280;46115;44.484;11.314;2023-05-22T18:03:23;99930.59;;;23.78;57.36
60258;BME280;46115;44.484;11.314;2023-05-22T18:07:27;99940.91;;;23.58;59.28
60258;BME280;46115;44.484;11.314;2023-05-22T18:11:30;99943.25;;;23.53;60.35
60258;BME280;46115;44.484;11.314;2023-05-22T18:15:32;99944.97;;;23.14;61.12
60258;BME280;46115;44.484;11.314;2023-05-22T18:19:34;99956.94;;;23.03;61.27
60258;BME280;46115;44.484;11.314;2023-05-22T18:23:38;99958.28;;;22.99;60.99
60258;BME280;46115;44.484;11.314;2023-05-22T18:27:41;99959.31;;;22.98;61.23
60258;BME280;46115;44.484;11.314;2023-05-22T18:31:45;99951.84;;;22.84;62.35
60258;BME280;46115;44.484;11.314;2023-05-22T18:35:48;99953.06;;;22.97;61.21
60258;BME280;46115;44.484;11.314;2023-05-22T18:39:52;99949.84;;;22.86;61.91
60258;BME280;46115;44.484;11.314;2023-05-22T18:43:54;99952.53;;;22.86;62.51
60258;BME280;46115;44.484;11.314;2023-05-22T18:47:57;99955.03;;;22.21;65.71
60258;BME280;46115;44.484;11.314;2023-05-22T18:51:59;99933.41;;;22.04;65.82
60258;BME280;46115;44.484;11.314;2023-05-22T18:56:03;99949.19;;;21.99;65.51
60258;BME280;46115;44.484;11.314;2023-05-22T19:00:06;99950.75;;;21.84;66.96
60258;BME280;46115;44.484;11.314;2023-05-22T19:04:10;99950.47;;;21.35;70.18
60258;BME280;46115;44.484;11.314;2023-05-22T19:08:12;99957.53;;;21.18;70.88
60258;BME280;46115;44.484;11.314;2023-05-22T19:12:16;99969.28;;;21.35;69.84
60258;BME280;46115;44.484;11.314;2023-05-22T19:16:19;99968.81;;;21.40;69.74
60258;BME280;46115;44.484;11.314;2023-05-22T19:20:22;99978.59;;;21.23;70.24
60258;BME280;46115;44.484;11.314;2023-05-22T19:24:25;99979.34;;;21.33;69.41
60258;BME280;46115;44.484;11.314;2023-05-22T19:28:29;99986.28;;;21.62;68.29
60258;BME280;46115;44.484;11.314;2023-05-22T19:32:32;99994.72;;;21.67;68.95
60258;BME280;46115;44.484;11.314;2023-05-22T22:06:08;100066.69;;;18.75;91.40
60258;BME280;46115;44.484;11.314;2023-05-22T22:10:11;100069.53;;;18.92;89.86
60258;BME280;46115;44.484;11.314;2023-05-22T22:14:13;100072.75;;;18.86;89.85
60258;BME280;46115;44.484;11.314;2023-05-22T22:18:16;100076.44;;;18.85;90.01
60258;BME280;46115;44.484;11.314;2023-05-22T22:22:20;100075.72;;;18.83;89.80
60258;BME280;46115;44.484;11.314;2023-05-22T22:26:22;100081.44;;;18.69;90.07
60258;BME280;46115;44.484;11.314;2023-05-22T22:30:25;100081.72;;;18.66;91.15
60258;BME280;46115;44.484;11.314;2023-05-22T22:34:27;100085.34;;;18.34;93.30
60258;BME280;46115;44.484;11.314;2023-05-22T22:38:31;100091.56;;;18.35;93.28
60258;BME280;46115;44.484;11.314;2023-05-22T22:42:35;100084.88;;;18.20;95.09
60258;BME280;46115;44.484;11.314;2023-05-22T22:46:37;100083.00;;;18.11;96.11
60258;BME280;46115;44.484;11.314;2023-05-22T22:50:39;100065.72;;;18.15;94.10
60258;BME280;46115;44.484;11.314;2023-05-22T22:54:43;100069.78;;;18.39;94.07
60258;BME280;46115;44.484;11.314;2023-05-22T22:58:45;100076.22;;;18.37;93.09
60258;BME280;46115;44.484;11.314;2023-05-22T23:02:48;100078.03;;;18.36;93.17
60258;BME280;46115;44.484;11.314;2023-05-22T23:06:50;100074.97;;;18.11;94.94
60258;BME280;46115;44.484;11.314;2023-05-22T23:10:54;100071.75;;;18.17;94.30
60258;BME280;46115;44.484;11.314;2023-05-22T23:14:56;100072.78;;;18.25;94.06
60258;BME280;46115;44.484;11.314;2023-05-22T23:18:59;100071.34;;;17.91;95.23
60258;BME280;46115;44.484;11.314;2023-05-22T23:23:01;100065.97;;;17.91;95.86
60258;BME280;46115;44.484;11.314;2023-05-22T23:27:05;100068.03;;;17.77;96.01
60258;BME280;46115;44.484;11.314;2023-05-22T23:31:07;100067.94;;;17.68;97.11
60258;BME280;46115;44.484;11.314;2023-05-22T23:35:10;100065.69;;;17.52;97.52